Time;durP1;ratioP1;P1;durP2;ratioP2;P2;SDS_P1;SDS_P2;PMS_P1;PMS_P2;Temp;Humidity;BMP_temperature;BMP_pressure;BME280_temperature;BME280_humidity;BME280_pressure;Samples;Min_cycle;Max_cycle;Signal;HPM_P1;HPM_P2
2023/12/22 00:02:30;;;;;;;10.30;3.50;;;;;;;5.90;100.00;97111.88;110982;1254;23635;-78
2023/12/22 00:05:01;;;;;;;12.40;3.70;;;;;;;5.89;100.00;97114.88;111069;1254;23516;-81
2023/12/22 00:07:55;;;;;;;14.80;4.50;;;;;;;5.85;100.00;97121.89;111424;1254;21962;-80
2023/12/22 00:10:32;;;;;;;15.90;4.40;;;;;;;5.78;100.00;97126.31;111422;1251;22011;-80
2023/12/22 00:13:01;;;;;;;9.80;4.00;;;;;;;5.75;100.00;97125.89;110988;1254;22058;-78
2023/12/22 00:15:46;;;;;;;10.70;4.40;;;;;;;5.70;100.00;97123.45;111357;1254;21972;-81
2023/12/22 00:18:44;;;;;;;15.80;4.80;;;;;;;5.66;100.00;97119.55;111143;1254;21950;-75
2023/12/22 00:22:03;;;;;;;9.40;4.00;;;;;;;5.49;100.00;97111.30;110936;1259;21957;-79
2023/12/22 00:24:58;;;;;;;15.20;4.70;;;;;;;5.48;100.00;97122.89;110748;1259;21973;-79
2023/12/22 00:27:31;;;;;;;12.70;5.00;;;;;;;5.42;100.00;97121.04;110591;1259;22718;-81
2023/12/22 00:30:09;;;;;;;12.50;4.00;;;;;;;5.38;100.00;97123.18;110494;1259;22028;-78
2023/12/22 00:32:48;;;;;;;10.60;4.10;;;;;;;5.35;100.00;97126.66;110457;1265;21999;-77
2023/12/22 00:35:44;;;;;;;9.90;3.50;;;;;;;5.32;100.00;97129.98;110291;1265;22744;-78
2023/12/22 00:38:15;;;;;;;14.30;4.50;;;;;;;5.33;100.00;97123.71;110266;1265;22398;-78
2023/12/22 00:40:43;;;;;;;11.70;5.00;;;;;;;5.34;100.00;97124.51;110105;1265;21979;-78
2023/12/22 00:43:12;;;;;;;16.90;3.80;;;;;;;5.34;100.00;97123.49;110235;1265;24555;-81
2023/12/22 00:45:45;;;;;;;13.40;4.00;;;;;;;5.32;100.00;97129.98;110280;1261;23631;-77
2023/12/22 00:48:19;;;;;;;11.20;3.80;;;;;;;5.31;100.00;97129.04;110099;1265;22937;-76
2023/12/22 00:50:52;;;;;;;13.60;4.50;;;;;;;5.30;100.00;97126.49;110123;1263;23305;-80
2023/12/22 00:53:39;;;;;;;14.50;4.80;;;;;;;5.28;100.00;97119.27;109724;1257;23046;-79
2023/12/22 00:56:13;;;;;;;12.20;4.40;;;;;;;5.26;100.00;97123.87;109410;1269;21983;-81
2023/12/22 00:58:48;;;;;;;11.30;4.60;;;;;;;5.26;100.00;97127.61;109487;1272;21980;-78
2023/12/22 01:01:35;;;;;;;9.30;4.00;;;;;;;5.24;100.00;97124.31;109497;1272;22362;-78
2023/12/22 01:04:06;;;;;;;15.90;5.30;;;;;;;5.23;100.00;97123.85;109577;1271;22949;-80
2023/12/22 01:06:39;;;;;;;12.10;4.00;;;;;;;5.23;100.00;97122.14;109217;1269;23050;-78
2023/12/22 01:09:37;;;;;;;16.30;4.50;;;;;;;5.23;100.00;97128.84;110153;1265;23769;-80
2023/12/22 01:12:17;;;;;;;14.40;4.40;;;;;;;5.25;100.00;97121.70;110632;1257;21960;-78
2023/12/22 01:15:00;;;;;;;16.10;4.90;;;;;;;5.26;100.00;97115.92;110837;1257;22704;-80
2023/12/22 01:17:39;;;;;;;19.80;4.80;;;;;;;5.28;100.00;97115.80;110572;1260;24313;-79
2023/12/22 01:21:04;;;;;;;12.80;4.70;;;;;;;5.29;100.00;97121.42;110465;1260;23033;-80
2023/12/22 01:24:30;;;;;;;19.70;5.00;;;;;;;5.26;100.00;97114.17;110927;1260;22042;-78
2023/12/22 01:27:32;;;;;;;12.00;4.30;;;;;;;5.27;100.00;97120.86;110749;1260;21989;-79
2023/12/22 01:31:24;;;;;;;14.10;3.10;;;;;;;5.26;100.00;97116.45;110549;1265;23052;-78
2023/12/22 01:34:18;;;;;;;14.10;4.40;;;;;;;5.29;100.00;97125.88;110298;1264;22269;-80
2023/12/22 01:37:12;;;;;;;13.70;3.80;;;;;;;5.29;100.00;97130.35;109992;1268;23769;-79
2023/12/22 01:40:16;;;;;;;;;;;;;;;;;;;;;
2023/12/22 01:43:21;;;;;;;;;;;;;;;;;;;;;
2023/12/22 01:46:44;;;;;;;11.50;3.90;;;;;;;5.22;100.00;97165.83;109242;1270;23062;-78
2023/12/22 01:49:29;;;;;;;12.60;3.40;;;;;;;5.16;100.00;97160.39;109654;1270;21993;-76
2023/12/22 01:52:10;;;;;;;9.50;3.50;;;;;;;5.08;100.00;97162.98;109574;1270;23624;-79
2023/12/22 01:54:41;;;;;;;10.70;4.10;;;;;;;5.01;100.00;97166.56;109601;1266;22012;-79
2023/12/22 01:57:27;;;;;;;13.90;4.30;;;;;;;4.92;100.00;97163.52;110389;1260;22972;-79
2023/12/22 02:00:37;;;;;;;8.20;3.20;;;;;;;4.79;100.00;97158.00;110720;1254;23024;-79
2023/12/22 02:03:24;;;;;;;10.60;3.90;;;;;;;4.69;100.00;97152.80;111296;1254;23672;-79
2023/12/22 02:05:56;;;;;;;8.30;3.60;;;;;;;4.63;100.00;97144.52;111195;1254;23013;-77
2023/12/22 02:08:31;;;;;;;7.90;3.00;;;;;;;4.61;100.00;97140.20;111095;1254;21964;-78
2023/12/22 02:11:05;;;;;;;9.90;3.70;;;;;;;4.59;100.00;97140.35;111390;1254;21979;-79
2023/12/22 02:13:35;;;;;;;13.70;3.70;;;;;;;4.59;100.00;97141.02;111145;1254;23724;-78
2023/12/22 02:16:40;;;;;;;14.00;3.90;;;;;;;4.61;100.00;97141.76;110952;1254;23609;-78
2023/12/22 02:19:42;;;;;;;14.30;4.50;;;;;;;4.61;100.00;97137.83;110644;1260;22732;-77
2023/12/22 02:22:12;;;;;;;14.80;4.90;;;;;;;4.60;100.00;97132.52;110659;1260;21998;-76
2023/12/22 02:24:45;;;;;;;18.80;5.30;;;;;;;4.59;100.00;97129.64;110658;1260;22191;-79
2023/12/22 02:27:28;;;;;;;15.00;4.10;;;;;;;4.58;100.00;97129.39;110792;1261;23440;-77
2023/12/22 02:30:36;;;;;;;14.60;4.10;;;;;;;4.57;100.00;97126.86;110639;1261;21987;-77
2023/12/22 02:33:08;;;;;;;11.90;3.70;;;;;;;4.56;100.00;97132.45;110016;1266;23598;-78
2023/12/22 02:35:41;;;;;;;18.30;4.70;;;;;;;4.56;100.00;97133.11;109797;1268;24503;-78
2023/12/22 02:38:12;;;;;;;11.60;3.70;;;;;;;4.59;100.00;97138.27;109673;1267;22049;-77
2023/12/22 02:40:47;;;;;;;10.10;3.00;;;;;;;4.59;100.00;97138.06;110007;1268;21952;-79
2023/12/22 02:43:19;;;;;;;10.60;4.10;;;;;;;4.58;100.00;97136.23;110091;1264;22065;-77
2023/12/22 02:45:51;;;;;;;9.80;3.50;;;;;;;4.59;100.00;97134.11;110062;1268;23623;-76
2023/12/22 02:48:23;;;;;;;10.90;3.40;;;;;;;4.59;100.00;97135.69;110149;1266;22038;-77
2023/12/22 02:50:52;;;;;;;17.50;5.50;;;;;;;4.58;100.00;97134.33;109922;1268;21995;-77
2023/12/22 02:53:25;;;;;;;14.30;3.90;;;;;;;4.59;100.00;97135.70;109919;1267;21996;-77
2023/12/22 02:56:25;;;;;;;13.80;4.60;;;;;;;4.57;100.00;97131.16;109708;1267;23699;-78
2023/12/22 02:59:46;;;;;;;13.70;4.10;;;;;;;4.54;100.00;97135.84;110206;1265;22004;-78
2023/12/22 03:02:27;;;;;;;14.30;4.30;;;;;;;4.52;100.00;97137.36;110314;1265;22933;-77
2023/12/22 03:05:07;;;;;;;18.80;4.60;;;;;;;4.53;100.00;97131.25;110319;1265;22908;-78
2023/12/22 03:08:03;;;;;;;13.10;4.40;;;;;;;4.54;100.00;97130.67;109841;1256;23112;-76
2023/12/22 03:10:52;;;;;;;10.50;3.90;;;;;;;4.56;100.00;97128.27;109551;1269;21977;-76
2023/12/22 03:13:40;;;;;;;15.50;4.80;;;;;;;4.56;100.00;97123.13;109631;1267;21970;-78
2023/12/22 03:16:16;;;;;;;16.40;5.10;;;;;;;4.54;100.00;97126.51;109411;1271;23717;-77
2023/12/22 03:19:02;;;;;;;;;;;;;;;;;;;;;
2023/12/22 03:21:46;;;;;;;16.40;5.60;;;;;;;4.51;100.00;97124.68;109758;1269;21959;-77
2023/12/22 03:24:31;;;;;;;14.70;4.20;;;;;;;4.48;100.00;97127.77;109554;1269;22396;-77
2023/12/22 03:27:09;;;;;;;13.70;4.50;;;;;;;4.48;100.00;97125.19;109977;1265;23060;-77
2023/12/22 03:29:40;;;;;;;12.40;4.60;;;;;;;4.50;100.00;97128.55;110273;1263;21991;-76
2023/12/22 03:32:10;;;;;;;16.20;4.30;;;;;;;4.52;100.00;97132.50;109352;1271;22516;-78
2023/12/22 03:34:43;;;;;;;15.40;5.20;;;;;;;4.55;100.00;97139.90;109761;1268;22032;-77
2023/12/22 03:37:39;;;;;;;14.60;4.20;;;;;;;4.56;100.00;97148.30;109859;1267;22190;-77
2023/12/22 03:40:09;;;;;;;18.30;4.90;;;;;;;4.57;100.00;97155.43;110336;1262;22230;-78
2023/12/22 03:42:40;;;;;;;12.80;4.20;;;;;;;4.58;100.00;97158.83;110556;1262;22981;-76
2023/12/22 03:45:11;;;;;;;17.10;4.90;;;;;;;4.58;100.00;97163.48;110587;1262;21979;-79
2023/12/22 03:47:43;;;;;;;15.40;4.50;;;;;;;4.58;100.00;97166.58;109946;1267;22988;-76
2023/12/22 03:50:13;;;;;;;15.00;5.10;;;;;;;4.58;100.00;97171.23;109955;1261;23007;-77
2023/12/22 03:52:45;;;;;;;15.60;4.60;;;;;;;4.58;100.00;97175.50;110615;1261;23398;-78
2023/12/22 03:55:17;;;;;;;11.70;4.70;;;;;;;4.61;100.00;97176.71;110489;1264;21976;-77
2023/12/22 03:57:51;;;;;;;12.80;4.10;;;;;;;4.63;100.00;97183.29;109701;1270;23750;-77
2023/12/22 04:00:23;;;;;;;12.60;4.50;;;;;;;4.65;100.00;97184.38;109742;1269;23627;-79
2023/12/22 04:02:51;;;;;;;14.60;4.90;;;;;;;4.67;100.00;97186.50;108955;1275;23744;-77
2023/12/22 04:05:22;;;;;;;14.50;4.90;;;;;;;4.69;100.00;97188.44;109064;1275;21997;-77
2023/12/22 04:08:20;;;;;;;20.90;6.10;;;;;;;4.69;100.00;97188.26;109106;1275;22044;-78
2023/12/22 04:10:51;;;;;;;13.70;4.90;;;;;;;4.67;100.00;97184.39;109103;1275;21998;-76
2023/12/22 04:13:20;;;;;;;15.70;4.30;;;;;;;4.66;100.00;97187.41;109714;1269;21986;-77
2023/12/22 04:15:49;;;;;;;15.00;4.30;;;;;;;4.64;100.00;97183.73;109662;1268;21953;-78
2023/12/22 04:18:17;;;;;;;12.70;4.20;;;;;;;4.63;100.00;97188.43;109820;1268;21999;-78
2023/12/22 04:20:49;;;;;;;12.50;4.40;;;;;;;4.63;100.00;97192.59;110175;1262;22011;-77
2023/12/22 04:23:18;;;;;;;39.80;24.90;;;;;;;4.62;100.00;97190.61;111151;1254;24294;-78
2023/12/22 04:25:53;;;;;;;17.30;5.50;;;;;;;4.50;100.00;97168.83;111124;1254;23015;-77
2023/12/22 04:28:29;;;;;;;13.90;4.80;;;;;;;4.56;100.00;97188.20;110637;1260;21967;-77
2023/12/22 04:30:58;;;;;;;16.60;4.70;;;;;;;4.54;100.00;97182.53;110493;1261;22347;-79
2023/12/22 04:33:26;;;;;;;14.10;4.50;;;;;;;4.49;100.00;97192.80;110416;1261;22756;-81
2023/12/22 04:35:55;;;;;;;19.50;5.30;;;;;;;4.44;100.00;97197.06;110034;1267;21990;-77
2023/12/22 04:38:23;;;;;;;14.80;4.70;;;;;;;4.40;100.00;97193.52;110095;1266;21993;-77
2023/12/22 04:40:51;;;;;;;14.50;4.70;;;;;;;4.35;100.00;97195.73;110016;1267;21978;-77
2023/12/22 04:43:19;;;;;;;10.50;3.50;;;;;;;4.31;100.00;97198.59;109546;1269;21978;-76
2023/12/22 04:45:47;;;;;;;17.00;4.40;;;;;;;4.28;100.00;97197.23;109720;1267;22543;-78
2023/12/22 04:48:15;;;;;;;12.70;4.30;;;;;;;4.26;100.00;97203.67;109698;1265;22001;-78
2023/12/22 04:50:43;;;;;;;16.60;4.30;;;;;;;4.20;100.00;97191.48;109936;1265;24151;-78
2023/12/22 04:53:11;;;;;;;16.80;4.50;;;;;;;4.22;100.00;97201.86;109709;1259;21980;-77
2023/12/22 04:55:42;;;;;;;14.00;3.40;;;;;;;4.21;100.00;97205.58;110772;1259;21971;-77
2023/12/22 04:58:14;;;;;;;19.70;5.50;;;;;;;4.19;100.00;97213.30;110622;1259;21998;-77
2023/12/22 05:00:42;;;;;;;19.80;4.70;;;;;;;4.17;100.00;97214.77;110712;1254;22014;-78
2023/12/22 05:03:13;;;;;;;13.90;5.10;;;;;;;4.16;100.00;97215.38;111200;1254;24285;-77
2023/12/22 05:05:41;;;;;;;14.30;3.60;;;;;;;4.16;100.00;97207.07;111187;1254;24333;-79
2023/12/22 05:08:11;;;;;;;13.10;3.70;;;;;;;4.18;100.00;97199.05;111001;1254;23679;-77
2023/12/22 05:10:40;;;;;;;11.10;4.60;;;;;;;4.21;100.00;97198.89;111271;1254;23583;-79
2023/12/22 05:13:09;;;;;;;21.00;4.10;;;;;;;4.24;100.00;97204.34;111143;1254;22970;-79
2023/12/22 05:15:37;;;;;;;13.50;4.20;;;;;;;4.25;100.00;97197.77;111095;1248;23710;-77
2023/12/22 05:18:06;;;;;;;17.70;4.10;;;;;;;4.26;100.00;97202.00;111004;1254;22425;-78
2023/12/22 05:20:34;;;;;;;14.20;4.20;;;;;;;4.24;100.00;97198.67;111142;1254;22890;-77
2023/12/22 05:23:02;;;;;;;12.40;3.70;;;;;;;4.22;100.00;97191.76;110772;1257;21977;-78
2023/12/22 05:25:31;;;;;;;13.40;4.70;;;;;;;4.15;100.00;97183.05;110097;1265;23124;-77
2023/12/22 05:27:59;;;;;;;10.90;4.50;;;;;;;4.17;100.00;97186.90;110081;1265;23742;-76
2023/12/22 05:30:28;;;;;;;11.70;3.80;;;;;;;4.14;100.00;97183.95;110049;1265;22240;-78
2023/12/22 05:32:56;;;;;;;13.90;4.60;;;;;;;4.12;100.00;97184.29;110048;1264;21928;-77
2023/12/22 05:35:24;;;;;;;7.70;3.80;;;;;;;4.07;100.00;97197.67;110154;1265;23622;-77
2023/12/22 05:37:52;;;;;;;12.80;4.20;;;;;;;4.04;100.00;97192.70;110086;1264;22168;-76
2023/12/22 05:40:22;;;;;;;10.20;4.20;;;;;;;4.00;100.00;97195.50;110111;1259;21979;-79
2023/12/22 05:42:50;;;;;;;12.70;4.10;;;;;;;3.98;100.00;97196.47;110720;1255;23908;-79
2023/12/22 05:45:18;;;;;;;12.40;4.20;;;;;;;3.96;100.00;97201.94;111381;1254;22868;-80
2023/12/22 05:47:46;;;;;;;16.40;4.00;;;;;;;3.93;100.00;97200.05;111168;1254;21969;-78
2023/12/22 05:50:15;;;;;;;17.70;5.40;;;;;;;3.90;100.00;97212.29;111291;1254;22356;-81
2023/12/22 05:52:44;;;;;;;16.80;3.70;;;;;;;3.87;100.00;97220.23;111121;1254;23583;-81
2023/12/22 05:55:12;;;;;;;11.80;4.70;;;;;;;3.83;100.00;97225.29;111096;1254;24407;-80
2023/12/22 05:57:45;;;;;;;12.60;4.40;;;;;;;3.80;100.00;97225.27;111194;1254;21997;-80
2023/12/22 06:00:23;;;;;;;14.10;4.20;;;;;;;3.78;100.00;97232.96;111550;1252;21956;-81
2023/12/22 06:02:51;;;;;;;14.30;4.40;;;;;;;3.79;100.00;97241.55;111113;1254;22730;-78
2023/12/22 06:05:22;;;;;;;16.50;4.80;;;;;;;3.79;100.00;97248.59;111369;1254;21999;-79
2023/12/22 06:07:56;;;;;;;16.80;4.50;;;;;;;3.79;100.00;97246.48;111193;1254;22928;-80
2023/12/22 06:10:28;;;;;;;15.50;4.50;;;;;;;3.80;100.00;97248.16;111479;1254;21985;-80
2023/12/22 06:13:03;;;;;;;18.10;4.60;;;;;;;3.75;100.00;97235.36;111280;1254;21998;-79
2023/12/22 06:15:34;;;;;;;13.30;4.60;;;;;;;3.76;100.00;97241.14;111443;1254;21994;-81
2023/12/22 06:18:05;;;;;;;14.70;5.30;;;;;;;3.82;100.00;97257.65;110860;1258;21973;-79
2023/12/22 06:20:37;;;;;;;12.60;5.40;;;;;;;3.84;100.00;97263.56;111254;1258;22038;-81
2023/12/22 06:23:06;;;;;;;13.60;5.50;;;;;;;3.85;100.00;97269.70;110556;1264;21975;-81
2023/12/22 06:25:46;;;;;;;12.60;4.30;;;;;;;3.86;100.00;97274.27;109883;1269;21982;-80
2023/12/22 06:28:16;;;;;;;12.60;4.20;;;;;;;3.86;100.00;97267.56;110022;1269;22004;-79
2023/12/22 06:30:48;;;;;;;12.40;4.40;;;;;;;3.85;100.00;97261.77;110043;1263;22440;-80
2023/12/22 06:33:16;;;;;;;20.00;6.10;;;;;;;3.88;100.00;97265.76;109552;1272;23636;-80
2023/12/22 06:35:45;;;;;;;17.70;5.90;;;;;;;3.88;100.00;97267.64;109624;1268;22462;-81
2023/12/22 06:38:19;;;;;;;18.10;5.60;;;;;;;3.87;100.00;97263.70;109976;1268;22100;-81
2023/12/22 06:40:48;;;;;;;43.20;20.30;;;;;;;3.85;100.00;97256.96;110036;1262;21978;-79
2023/12/22 06:43:33;;;;;;;19.30;6.20;;;;;;;3.83;100.00;97260.19;110967;1258;24080;-78
2023/12/22 06:46:30;;;;;;;16.80;6.80;;;;;;;3.81;100.00;97260.13;110859;1257;21975;-80
2023/12/22 06:49:07;;;;;;;16.70;5.20;;;;;;;3.77;100.00;97254.36;111005;1258;23018;-79
2023/12/22 06:51:36;;;;;;;14.60;4.30;;;;;;;3.76;100.00;97249.44;111283;1254;21971;-80
2023/12/22 06:54:38;;;;;;;24.10;5.80;;;;;;;3.74;100.00;97250.61;111609;1254;23031;-82
2023/12/22 06:57:16;;;;;;;17.20;3.90;;;;;;;3.69;100.00;97248.27;111555;1254;22416;-80
2023/12/22 07:01:35;;;;;;;11.30;4.80;;;;;;;3.80;100.00;97242.44;108299;1288;544142;-82
2023/12/22 07:04:12;;;;;;;21.00;7.30;;;;;;;3.72;100.00;97242.12;110367;1265;21964;-83
2023/12/22 07:06:43;;;;;;;18.30;7.20;;;;;;;3.67;100.00;97240.84;109831;1267;21971;-83
2023/12/22 07:09:17;;;;;;;19.30;13.90;;;;;;;3.64;100.00;97240.16;110616;1263;22473;-84
2023/12/22 07:11:52;;;;;;;13.20;6.10;;;;;;;3.60;100.00;97245.74;110100;1266;22118;-83
2023/12/22 07:14:30;;;;;;;18.60;5.30;;;;;;;3.58;100.00;97243.08;109582;1263;131424;-81
2023/12/22 07:17:06;;;;;;;14.00;4.70;;;;;;;3.60;100.00;97248.15;109587;1272;22004;-83
2023/12/22 07:20:16;;;;;;;;;;;;;;;;;;;;;
2023/12/22 07:23:36;;;;;;;19.00;6.60;;;;;;;3.56;100.00;97228.59;110196;1262;21985;-83
2023/12/22 07:26:15;;;;;;;15.20;5.40;;;;;;;3.66;100.00;97236.56;109974;1269;23080;-84
2023/12/22 07:28:57;;;;;;;18.20;7.80;;;;;;;3.71;100.00;97240.09;109900;1269;22457;-84
2023/12/22 07:31:28;;;;;;;17.00;5.40;;;;;;;3.69;100.00;97234.55;110132;1263;23606;-85
2023/12/22 07:34:28;;;;;;;13.40;5.60;;;;;;;3.68;100.00;97232.34;111413;1253;21979;-84
2023/12/22 07:37:08;;;;;;;14.40;5.20;;;;;;;3.75;100.00;97232.45;111046;1258;23714;-83
2023/12/22 07:39:48;;;;;;;14.80;6.00;;;;;;;3.81;100.00;97231.20;111121;1259;21984;-82
2023/12/22 07:42:25;;;;;;;11.00;4.60;;;;;;;3.89;100.00;97234.54;111064;1259;22047;-82
2023/12/22 07:45:03;;;;;;;14.40;6.30;;;;;;;3.96;100.00;97232.75;111114;1259;22427;-85
2023/12/22 07:48:06;;;;;;;18.90;7.40;;;;;;;4.03;100.00;97226.81;110595;1261;21976;-84
2023/12/22 07:51:00;;;;;;;12.30;5.80;;;;;;;4.06;100.00;97221.96;109948;1268;24307;-86
2023/12/22 07:53:37;;;;;;;17.60;7.40;;;;;;;4.07;100.00;97205.90;109689;1273;22779;-84
2023/12/22 07:56:24;;;;;;;20.20;11.00;;;;;;;4.07;100.00;97205.73;110125;1266;22025;-86
2023/12/22 07:59:02;;;;;;;21.60;9.10;;;;;;;4.09;100.00;97203.20;110622;1266;21956;-84
2023/12/22 08:02:00;;;;;;;13.60;7.10;;;;;;;4.12;100.00;97195.60;110395;1266;22078;-86
2023/12/22 08:04:36;;;;;;;15.80;9.30;;;;;;;4.15;100.00;97197.01;110398;1266;23055;-85
2023/12/22 08:07:18;;;;;;;13.00;6.50;;;;;;;4.19;100.00;97191.44;110116;1269;23723;-84
2023/12/22 08:09:57;;;;;;;20.20;10.40;;;;;;;4.25;100.00;97193.59;110722;1263;21963;-83
2023/12/22 08:12:59;;;;;;;;;;;;;;;;;;;;;
2023/12/22 08:15:36;;;;;;;18.50;10.70;;;;;;;4.26;100.00;97188.69;110004;1268;21977;-83
2023/12/22 08:18:08;;;;;;;18.10;8.30;;;;;;;4.28;100.00;97181.91;109718;1271;23875;-82
2023/12/22 08:20:49;;;;;;;17.80;7.90;;;;;;;4.29;100.00;97180.96;109557;1275;22190;-83
2023/12/22 08:23:29;;;;;;;19.50;8.20;;;;;;;4.29;100.00;97196.64;109436;1275;22846;-84
2023/12/22 08:26:17;;;;;;;14.60;6.90;;;;;;;4.32;100.00;97204.38;109416;1275;22004;-84
2023/12/22 08:29:01;;;;;;;19.10;9.40;;;;;;;4.34;100.00;97219.39;108950;1281;22062;-80
2023/12/22 08:32:01;;;;;;;11.70;5.60;;;;;;;4.29;100.00;97219.52;108972;1278;21998;-82
2023/12/22 08:34:51;;;;;;;11.10;4.20;;;;;;;4.16;100.00;97227.59;109492;1274;21988;-82
2023/12/22 08:37:25;;;;;;;10.50;4.30;;;;;;;4.05;100.00;97230.46;110127;1268;21993;-80
2023/12/22 08:39:59;;;;;;;7.90;3.80;;;;;;;3.88;100.00;97227.70;109985;1268;21977;-81
2023/12/22 08:42:36;;;;;;;8.60;3.70;;;;;;;3.76;100.00;97212.45;109433;1272;22922;-83
2023/12/22 08:45:18;;;;;;;12.20;5.20;;;;;;;3.66;100.00;97212.37;109513;1264;21980;-82
2023/12/22 08:48:18;;;;;;;5.90;2.90;;;;;;;3.59;100.00;97230.98;110017;1269;21970;-83
2023/12/22 08:51:00;;;;;;;7.20;3.50;;;;;;;3.58;100.00;97237.41;110476;1265;22012;-82
2023/12/22 08:53:33;;;;;;;;;;;;;;;3.60;100.00;97243.48;110415;1265;21982;-83
2023/12/22 08:56:16;;;;;;;7.10;3.80;;;;;;;3.57;100.00;97247.48;109716;1271;23053;-83
2023/12/22 08:58:46;;;;;;;4.10;2.80;;;;;;;3.60;100.00;97248.64;109659;1271;23750;-83
2023/12/22 09:01:22;;;;;;;5.60;2.80;;;;;;;3.65;100.00;97250.55;110186;1266;21992;-82
2023/12/22 09:04:06;;;;;;;5.40;2.70;;;;;;;3.69;100.00;97253.61;110445;1266;23074;-83
2023/12/22 09:06:46;;;;;;;7.90;2.30;;;;;;;3.72;100.00;97250.52;110377;1266;24297;-84
2023/12/22 09:09:16;;;;;;;5.00;2.50;;;;;;;3.75;100.00;97251.21;110235;1266;21966;-84
2023/12/22 09:12:00;;;;;;;7.30;3.00;;;;;;;3.77;100.00;97261.38;110609;1266;22018;-82
2023/12/22 09:14:33;;;;;;;7.40;2.20;;;;;;;3.80;100.00;97253.48;110668;1259;21983;-85
2023/12/22 09:17:28;;;;;;;4.10;2.20;;;;;;;3.85;100.00;97247.17;111023;1259;21978;-84
2023/12/22 09:20:03;;;;;;;4.40;1.80;;;;;;;3.87;100.00;97252.17;110941;1259;22416;-82
2023/12/22 09:22:42;;;;;;;4.10;2.40;;;;;;;3.91;100.00;97252.31;110600;1260;22006;-84
2023/12/22 09:25:27;;;;;;;6.50;2.80;;;;;;;3.95;100.00;97255.66;110950;1260;22101;-85
2023/12/22 09:28:03;;;;;;;4.20;2.50;;;;;;;3.98;100.00;97260.86;110900;1260;22040;-84
2023/12/22 09:30:42;;;;;;;5.20;3.30;;;;;;;3.98;100.00;97239.50;110870;1260;21966;-84
2023/12/22 09:33:16;;;;;;;5.00;3.30;;;;;;;4.07;100.00;97248.90;110919;1260;22124;-84
2023/12/22 09:35:52;;;;;;;5.60;3.00;;;;;;;4.21;100.00;97246.19;110863;1260;22464;-85
2023/12/22 09:38:42;;;;;;;7.00;3.40;;;;;;;4.27;100.00;97250.41;110827;1260;22991;-82
2023/12/22 09:41:17;;;;;;;7.90;3.50;;;;;;;4.24;100.00;97254.42;111275;1254;21963;-80
2023/12/22 09:43:57;;;;;;;7.70;4.90;;;;;;;4.18;100.00;97263.08;111232;1254;21967;-80
2023/12/22 09:46:40;;;;;;;6.90;3.30;;;;;;;4.02;100.00;97277.33;110934;1259;21966;-84
2023/12/22 09:49:39;;;;;;;7.10;4.10;;;;;;;3.72;100.00;97278.58;110828;1259;21970;-84
2023/12/22 09:52:24;;;;;;;7.40;3.60;;;;;;;3.44;100.00;97257.67;110399;1265;23635;-81
2023/12/22 09:55:27;;;;;;;9.80;3.30;;;;;;;3.23;100.00;97266.96;110213;1268;21976;-84
2023/12/22 10:01:12;;;;;;;6.90;3.30;;;;;;;2.91;100.00;97279.90;109113;1280;23610;-85
2023/12/22 10:03:55;;;;;;;11.70;4.20;;;;;;;2.80;100.00;97283.80;108886;1276;22285;-85
2023/12/22 10:06:28;;;;;;;10.30;5.00;;;;;;;2.65;100.00;97263.15;109343;1276;21999;-85
2023/12/22 10:09:07;;;;;;;9.30;4.30;;;;;;;2.76;100.00;97276.47;108744;1281;21991;-83
2023/12/22 10:11:47;;;;;;;7.70;4.70;;;;;;;2.80;100.00;97283.13;108781;1281;22021;-83
2023/12/22 10:14:26;;;;;;;9.00;4.30;;;;;;;2.85;100.00;97280.09;108962;1278;22611;-84
2023/12/22 10:17:02;;;;;;;13.20;5.20;;;;;;;2.88;100.00;97277.34;109735;1268;21995;-86
2023/12/22 10:19:37;;;;;;;8.70;3.90;;;;;;;2.88;100.00;97279.56;109864;1268;21955;-83
2023/12/22 10:22:11;;;;;;;8.80;4.20;;;;;;;2.94;100.00;97273.40;109709;1272;22043;-81
2023/12/22 10:24:50;;;;;;;9.80;3.30;;;;;;;2.99;100.00;97269.85;109139;1276;23637;-84
2023/12/22 10:27:28;;;;;;;9.30;3.40;;;;;;;3.06;100.00;97266.52;109790;1268;21976;-76
2023/12/22 10:30:15;;;;;;;9.10;4.20;;;;;;;3.18;100.00;97269.83;110251;1265;21954;-84
2023/12/22 10:33:20;;;;;;;9.40;4.40;;;;;;;3.31;100.00;97273.54;109749;1272;24326;-83
2023/12/22 10:36:08;;;;;;;6.10;3.60;;;;;;;3.39;100.00;97281.17;109668;1259;23055;-81
2023/12/22 10:38:51;;;;;;;5.40;3.00;;;;;;;3.44;100.00;97294.13;109336;1276;22001;-84
2023/12/22 10:41:38;;;;;;;;;;;;;;;3.47;100.00;97289.95;109504;1276;23047;-83
2023/12/22 10:44:33;;;;;;;4.00;3.50;;;;;;;3.44;100.00;97298.39;110084;1270;23069;-85
2023/12/22 10:47:20;;;;;;;4.60;2.50;;;;;;;3.47;100.00;97300.98;110038;1270;22008;-82
2023/12/22 10:50:43;;;;;;;5.20;2.90;;;;;;;3.39;100.00;97273.78;110092;1265;23055;-84
2023/12/22 10:53:27;;;;;;;7.20;3.70;;;;;;;3.43;100.00;97267.52;110029;1270;22839;-85
2023/12/22 10:56:28;;;;;;;8.90;4.30;;;;;;;3.55;100.00;97291.77;109689;1268;22003;-83
2023/12/22 10:59:03;;;;;;;8.30;4.60;;;;;;;3.57;100.00;97293.89;110129;1264;23612;-82
2023/12/22 11:02:36;;;;;;;106.10;30.20;;;;;;;3.58;100.00;97293.30;110660;1264;23842;-80
2023/12/22 11:05:51;;;;;;;9.30;4.10;;;;;;;3.70;100.00;97285.02;110693;1264;22033;-80
2023/12/22 11:09:03;;;;;;;8.00;3.70;;;;;;;3.83;100.00;97281.86;110865;1264;22022;-80
2023/12/22 11:12:09;;;;;;;10.20;4.40;;;;;;;3.97;100.00;97281.21;110787;1260;22133;-80
2023/12/22 11:15:05;;;;;;;5.40;3.10;;;;;;;4.10;100.00;97289.05;111099;1254;23615;-82
2023/12/22 11:18:15;;;;;;;7.40;3.60;;;;;;;4.18;100.00;97281.19;111637;1254;21990;-85
2023/12/22 11:21:23;;;;;;;9.50;3.50;;;;;;;4.14;100.00;97285.54;111803;1254;21994;-83
2023/12/22 11:24:15;;;;;;;10.20;3.50;;;;;;;4.09;100.00;97283.21;111571;1254;21971;-85
2023/12/22 11:27:15;;;;;;;7.10;3.00;;;;;;;4.07;100.00;97291.41;111245;1259;21986;-82
2023/12/22 11:29:54;;;;;;;8.20;3.40;;;;;;;4.07;100.00;97282.98;111346;1259;21964;-82
2023/12/22 11:32:38;;;;;;;7.40;3.10;;;;;;;4.05;100.00;97282.92;111173;1259;23079;-81
2023/12/22 11:35:11;;;;;;;7.70;3.40;;;;;;;4.06;100.00;97282.91;110711;1265;21983;-82
2023/12/22 11:37:59;;;;;;;10.10;3.70;;;;;;;4.06;100.00;97277.41;110119;1270;23657;-82
2023/12/22 11:40:50;;;;;;;5.70;3.00;;;;;;;4.06;100.00;97272.39;109911;1270;22037;-83
2023/12/22 11:43:48;;;;;;;10.10;3.10;;;;;;;4.08;100.00;97275.05;110102;1270;22004;-86
2023/12/22 11:47:10;;;;;;;6.40;3.00;;;;;;;4.07;100.00;97270.25;110527;1266;21990;-82
2023/12/22 11:49:50;;;;;;;11.20;3.60;;;;;;;4.06;100.00;97269.45;109805;1271;21994;-80
2023/12/22 11:53:39;;;;;;;9.70;3.10;;;;;;;4.11;100.00;97263.48;109346;1271;23087;-78
2023/12/22 11:56:34;;;;;;;11.80;4.00;;;;;;;4.23;100.00;97253.09;109525;1275;22487;-81
2023/12/22 11:59:19;;;;;;;7.50;4.10;;;;;;;4.34;100.00;97249.52;109735;1270;22267;-83
2023/12/22 12:01:59;;;;;;;12.50;3.80;;;;;;;4.37;100.00;97247.28;109934;1270;22002;-83
2023/12/22 12:05:13;;;;;;;6.00;3.20;;;;;;;4.34;100.00;97250.23;110017;1270;22012;-81
2023/12/22 12:08:16;;;;;;;10.10;4.90;;;;;;;4.31;100.00;97244.35;109727;1273;21969;-81
2023/12/22 12:11:12;;;;;;;11.80;4.60;;;;;;;4.31;100.00;97240.05;109327;1277;23035;-81
2023/12/22 12:14:18;;;;;;;;;;;;;;;;;;;;;
2023/12/22 12:17:29;;;;;;;33.60;5.60;;;;;;;4.30;100.00;97243.38;108972;1277;23643;-83
2023/12/22 12:20:36;;;;;;;21.30;3.70;;;;;;;4.42;100.00;97246.11;109134;1272;22710;-79
2023/12/22 12:23:17;;;;;;;8.10;3.60;;;;;;;4.54;100.00;97243.26;109691;1271;21999;-84
2023/12/22 12:26:03;;;;;;;11.80;4.40;;;;;;;4.57;100.00;97242.77;109698;1271;23046;-86
2023/12/22 12:28:53;;;;;;;9.30;4.00;;;;;;;4.55;100.00;97248.42;110045;1265;21974;-84
2023/12/22 12:31:41;;;;;;;9.30;3.20;;;;;;;4.50;100.00;97244.41;110522;1265;23609;-85
2023/12/22 12:34:20;;;;;;;11.70;3.50;;;;;;;4.44;100.00;97246.63;110823;1260;21973;-83
2023/12/22 12:36:59;;;;;;;12.50;3.40;;;;;;;4.42;100.00;97255.39;110826;1260;23720;-85
2023/12/22 12:39:41;;;;;;;13.90;4.10;;;;;;;4.42;100.00;97254.37;111049;1260;22176;-84
2023/12/22 12:42:23;;;;;;;8.60;3.40;;;;;;;4.36;100.00;97260.06;111012;1260;23715;-85